createdAt,value
2022-09-05T00:01:50.283Z,0.90
2022-09-05T00:04:28.269Z,1.42
2022-09-05T00:07:10.478Z,1.00
2022-09-05T00:10:09.137Z,1.30
2022-09-05T00:12:38.625Z,1.30
2022-09-05T00:15:20.559Z,1.13
2022-09-05T00:19:30.501Z,1.15
2022-09-05T00:24:26.449Z,1.20
2022-09-05T00:24:42.041Z,1.00
2022-09-05T00:26:58.702Z,1.02
2022-09-05T00:30:48.647Z,1.45
2022-09-05T00:32:44.586Z,2.20
2022-09-05T00:35:33.047Z,0.80
2022-09-05T00:38:13.899Z,1.05
2022-09-05T00:40:46.279Z,1.08
2022-09-05T00:43:18.815Z,1.00
2022-09-05T00:45:51.471Z,0.90
2022-09-05T00:48:29.825Z,0.98
2022-09-05T00:51:03.861Z,1.02
2022-09-05T00:53:41.676Z,1.40
2022-09-05T00:56:25.721Z,1.02
2022-09-05T00:59:24.945Z,0.90
2022-09-05T01:01:58.471Z,1.20
2022-09-05T01:04:36.086Z,0.93
2022-09-05T01:07:16.395Z,1.20
2022-09-05T01:09:51.341Z,1.30
2022-09-05T01:12:56.477Z,1.10
2022-09-05T01:15:32.684Z,1.20
2022-09-05T01:18:20.429Z,1.30
2022-09-05T01:21:06.289Z,1.20
2022-09-05T01:24:04.242Z,1.10
2022-09-05T01:26:58.446Z,1.33
2022-09-05T01:29:39.185Z,1.20
2022-09-05T01:32:28.272Z,2.10
2022-09-05T01:35:03.784Z,1.10
2022-09-05T01:37:39.787Z,2.10
2022-09-05T01:40:17.348Z,1.08
2022-09-05T01:43:02.930Z,1.38
2022-09-05T01:45:47.553Z,1.60
2022-09-05T01:48:28.315Z,3.35
2022-09-05T01:51:28.402Z,1.50
2022-09-05T01:54:21.335Z,1.50
2022-09-05T01:57:04.531Z,1.60
2022-09-05T01:59:41.159Z,1.00
2022-09-05T02:02:37.571Z,1.50
2022-09-05T02:05:47.261Z,1.48
2022-09-05T02:08:34.476Z,1.27
2022-09-05T02:11:07.660Z,1.45
2022-09-05T02:13:54.646Z,1.50
2022-09-05T02:16:29.475Z,1.70
2022-09-05T02:19:06.343Z,2.53
2022-09-05T02:21:56.469Z,1.88
2022-09-05T02:24:29.223Z,1.65
2022-09-05T02:27:30.222Z,1.85
2022-09-05T02:30:11.965Z,1.50
2022-09-05T02:32:48.364Z,1.50
2022-09-05T02:35:24.386Z,1.80
2022-09-05T02:40:00.970Z,1.55
2022-09-05T02:45:08.058Z,1.85
2022-09-05T02:45:09.512Z,1.90
2022-09-05T02:46:47.345Z,1.77
2022-09-05T02:50:36.435Z,1.83
2022-09-05T02:57:29.200Z,1.80
2022-09-05T02:57:38.791Z,1.77
2022-09-05T02:58:47.800Z,1.83
2022-09-05T03:01:31.393Z,2.30
2022-09-05T03:04:09.933Z,1.85
2022-09-05T03:06:45.095Z,2.25
2022-09-05T03:09:26.215Z,2.10
2022-09-05T03:12:44.977Z,2.47
2022-09-05T03:16:04.777Z,2.05
2022-09-05T03:19:11.753Z,2.05
2022-09-05T03:22:13.989Z,1.90
2022-09-05T03:25:11.422Z,1.95
2022-09-05T03:28:15.539Z,2.10
2022-09-05T03:31:04.357Z,2.10
2022-09-05T03:33:54.438Z,2.47
2022-09-05T03:36:52.207Z,2.40
2022-09-05T03:39:56.115Z,2.45
2022-09-05T03:42:44.817Z,2.33
2022-09-05T03:45:37.359Z,2.47
2022-09-05T03:48:29.552Z,2.60
2022-09-05T03:56:27.643Z,2.85
2022-09-05T03:57:23.702Z,2.63
2022-09-05T03:57:47.241Z,2.70
2022-09-05T04:00:22.116Z,2.60
2022-09-05T04:08:10.847Z,2.70
2022-09-05T04:08:16.801Z,2.63
2022-09-05T04:08:51.943Z,2.90
2022-09-05T04:11:33.242Z,2.38
2022-09-05T04:14:04.660Z,2.50
2022-09-05T04:16:47.463Z,2.45
2022-09-05T04:19:22.419Z,2.20
2022-09-05T04:21:58.629Z,2.65
2022-09-05T04:24:31.187Z,2.50
2022-09-05T04:27:27.951Z,2.42
2022-09-05T04:30:36.190Z,2.10
2022-09-05T04:33:35.823Z,2.45
2022-09-05T04:36:19.330Z,2.35
2022-09-05T04:39:06.153Z,3.20
2022-09-05T04:41:40.309Z,2.28
2022-09-05T04:44:14.774Z,3.50
2022-09-05T04:46:49.195Z,2.50
2022-09-05T04:49:24.319Z,2.47
2022-09-05T04:52:20.380Z,2.50
2022-09-05T04:55:02.055Z,2.55
2022-09-05T04:57:35.197Z,2.60
2022-09-05T05:04:33.781Z,2.63
2022-09-05T05:06:11.234Z,2.45
2022-09-05T05:06:31.652Z,2.75
2022-09-05T05:08:53.384Z,2.58
2022-09-05T05:18:01.161Z,2.50
2022-09-05T05:18:08.800Z,2.38
2022-09-05T05:18:15.778Z,2.50
2022-09-05T05:20:42.644Z,2.50
2022-09-05T05:23:16.764Z,2.65
2022-09-05T05:25:50.811Z,2.13
2022-09-05T05:28:28.098Z,2.63
2022-09-05T05:31:01.113Z,2.30
2022-09-05T05:33:33.799Z,2.63
2022-09-05T05:36:03.638Z,2.40
2022-09-05T05:38:40.953Z,2.33
2022-09-05T05:41:18.977Z,2.58
2022-09-05T05:43:47.527Z,2.30
2022-09-05T05:46:26.093Z,2.40
2022-09-05T05:48:57.359Z,2.42
2022-09-05T05:52:01.694Z,2.65
2022-09-05T05:54:36.984Z,2.10
2022-09-05T05:57:43.510Z,2.20
2022-09-05T06:00:24.541Z,2.63
2022-09-05T06:03:40.885Z,2.72
2022-09-05T06:06:39.187Z,2.28
2022-09-05T06:13:41.688Z,2.40
2022-09-05T06:14:59.170Z,2.30
2022-09-05T06:16:21.357Z,2.08
2022-09-05T06:19:53.212Z,2.20
2022-09-05T06:22:56.499Z,1.92
2022-09-05T06:26:03.423Z,2.10
2022-09-05T06:28:42.694Z,2.40
2022-09-05T06:31:31.637Z,1.92
2022-09-05T06:34:33.141Z,2.60
2022-09-05T06:37:10.741Z,2.17
2022-09-05T06:39:54.984Z,2.30
2022-09-05T06:42:43.344Z,2.38
2022-09-05T06:45:39.361Z,2.00
2022-09-05T06:48:24.865Z,2.33
2022-09-05T06:51:27.331Z,2.40
2022-09-05T06:54:09.835Z,2.22
2022-09-05T06:56:54.853Z,2.00
2022-09-05T06:59:56.183Z,2.55
2022-09-05T07:02:59.924Z,2.17
2022-09-05T07:05:40.055Z,2.20
2022-09-05T07:08:36.043Z,1.80
2022-09-05T07:11:17.288Z,2.00
2022-09-05T07:14:01.217Z,2.15
2022-09-05T07:16:39.330Z,2.15
2022-09-05T07:19:25.506Z,2.10
2022-09-05T07:22:25.794Z,2.08
2022-09-05T07:25:08.855Z,1.80
2022-09-05T07:27:55.977Z,2.05
2022-09-05T07:30:29.281Z,2.00
2022-09-05T07:32:59.378Z,1.77
2022-09-05T07:35:31.244Z,2.55
2022-09-05T07:38:14.724Z,2.78
2022-09-05T07:40:49.517Z,1.98
2022-09-05T07:43:21.970Z,2.30
2022-09-05T07:46:06.272Z,2.10
2022-09-05T07:48:39.517Z,1.88
2022-09-05T07:53:53.465Z,1.63
2022-09-05T07:57:10.576Z,1.75
2022-09-05T07:57:28.724Z,1.88
2022-09-05T07:59:50.218Z,2.28
2022-09-05T08:02:18.286Z,1.90
2022-09-05T08:04:46.607Z,2.35
2022-09-05T08:07:47.842Z,2.25
2022-09-05T08:10:15.433Z,2.22
2022-09-05T08:13:22.755Z,2.10
2022-09-05T08:16:09.960Z,2.17
2022-09-05T08:18:37.826Z,2.05
2022-09-05T08:21:13.438Z,1.60
2022-09-05T08:23:51.771Z,1.95
2022-09-05T08:26:30.470Z,2.13
2022-09-05T08:29:05.137Z,2.55
2022-09-05T08:31:42.242Z,2.05
2022-09-05T08:34:16.034Z,1.60
2022-09-05T08:36:47.062Z,1.80
2022-09-05T08:39:20.972Z,1.73
2022-09-05T08:42:05.767Z,1.60
2022-09-05T08:46:44.587Z,2.30
2022-09-05T08:47:45.497Z,1.75
2022-09-05T08:50:39.483Z,1.77
2022-09-05T08:53:36.444Z,2.00
2022-09-05T08:56:20.844Z,1.90
2022-09-05T08:59:31.612Z,1.95
2022-09-05T09:02:37.411Z,1.90
2022-09-05T09:05:14.639Z,1.58
2022-09-05T09:07:52.120Z,1.70
2022-09-05T09:10:44.586Z,2.10
2022-09-05T09:13:22.277Z,1.77
2022-09-05T09:16:00.434Z,2.05
2022-09-05T09:18:41.299Z,1.85
2022-09-05T09:21:25.137Z,1.92
2022-09-05T09:24:05.219Z,3.17
2022-09-05T09:26:37.089Z,1.98
2022-09-05T09:29:09.173Z,1.63
2022-09-05T09:31:53.004Z,3.13
2022-09-05T09:34:39.557Z,1.83
2022-09-05T09:37:40.282Z,1.90
2022-09-05T09:41:00.774Z,1.90
2022-09-05T09:43:35.350Z,1.80
2022-09-05T09:46:17.870Z,2.08
2022-09-05T09:49:10.701Z,1.88
2022-09-05T09:52:29.645Z,2.13
2022-09-05T09:55:40.873Z,2.30
2022-09-05T09:58:51.199Z,1.60
2022-09-05T10:01:36.290Z,1.77
2022-09-05T10:10:32.866Z,2.10
2022-09-05T10:10:45.155Z,2.28
2022-09-05T10:11:53.159Z,1.88
2022-09-05T10:14:49.959Z,1.90
2022-09-05T10:17:49.802Z,2.00
2022-09-05T10:20:53.912Z,1.85
2022-09-05T10:23:49.740Z,2.03
2022-09-05T10:26:41.998Z,2.30
2022-09-05T10:29:37.388Z,2.30
2022-09-05T10:35:00.788Z,2.15
2022-09-05T10:35:13.602Z,2.00
2022-09-05T10:37:52.785Z,2.45
2022-09-05T10:40:24.122Z,2.30
2022-09-05T10:43:00.805Z,2.20
2022-09-05T10:45:38.623Z,2.15
2022-09-05T10:48:14.046Z,2.40
2022-09-05T10:50:47.221Z,2.13
2022-09-05T10:53:31.111Z,2.58
2022-09-05T10:56:14.167Z,2.22
2022-09-05T11:01:31.008Z,1.90
2022-09-05T11:02:27.009Z,2.47
2022-09-05T11:04:52.293Z,2.15
2022-09-05T11:07:36.877Z,2.60
2022-09-05T11:10:12.529Z,1.90
2022-09-05T11:13:02.865Z,2.50
2022-09-05T11:15:43.946Z,2.30
2022-09-05T11:18:23.543Z,2.70
2022-09-05T11:21:08.711Z,2.08
2022-09-05T11:23:50.330Z,2.30
2022-09-05T11:26:35.919Z,2.53
2022-09-05T11:29:08.792Z,2.55
2022-09-05T11:32:21.107Z,2.38
2022-09-05T11:39:57.874Z,2.28
2022-09-05T11:40:24.984Z,1.90
2022-09-05T11:41:34.453Z,2.55
2022-09-05T11:44:35.729Z,2.20
2022-09-05T11:47:39.320Z,2.45
2022-09-05T11:50:36.673Z,2.33
2022-09-05T11:53:46.298Z,2.00
2022-09-05T11:56:54.770Z,2.17
2022-09-05T12:00:28.201Z,2.22
2022-09-05T12:03:11.874Z,2.00
2022-09-05T12:06:27.080Z,2.22
2022-09-05T12:09:06.581Z,2.20
2022-09-05T12:11:52.065Z,2.47
2022-09-05T12:14:38.834Z,2.25
2022-09-05T12:17:35.504Z,1.70
2022-09-05T12:20:17.257Z,1.70
2022-09-05T12:22:57.974Z,1.83
2022-09-05T12:27:42.867Z,1.95
2022-09-05T12:29:34.243Z,1.50
2022-09-05T12:33:43.777Z,1.20
2022-09-05T12:36:04.422Z,1.58
2022-09-05T12:40:48.310Z,1.40
2022-09-05T12:41:37.580Z,1.50
2022-09-05T12:44:14.347Z,1.60
2022-09-05T12:46:24.803Z,1.50
2022-09-05T12:49:07.182Z,1.48
2022-09-05T12:51:46.967Z,1.20
2022-09-05T12:54:33.680Z,1.40
2022-09-05T12:59:15.049Z,1.55
2022-09-05T13:03:02.746Z,1.33
2022-09-05T13:03:27.628Z,1.50
2022-09-05T13:05:59.401Z,1.00
2022-09-05T13:08:44.003Z,1.30
2022-09-05T13:14:47.027Z,1.30
2022-09-05T13:14:57.661Z,1.60
2022-09-05T13:16:57.713Z,1.30
2022-09-05T13:19:34.237Z,1.65
2022-09-05T13:22:05.114Z,1.30
2022-09-05T13:24:38.512Z,1.40
2022-09-05T13:27:14.857Z,1.55
2022-09-05T13:30:57.717Z,1.40
2022-09-05T13:38:00.765Z,1.67
2022-09-05T13:38:29.225Z,1.30
2022-09-05T13:38:48.477Z,1.13
2022-09-05T13:41:28.410Z,1.42
2022-09-05T13:44:00.377Z,1.90
2022-09-05T13:46:58.307Z,1.70
2022-09-05T13:49:32.213Z,1.55
2022-09-05T13:52:13.231Z,1.63
2022-09-05T13:54:51.096Z,1.33
2022-09-05T13:57:33.361Z,1.55
2022-09-05T14:00:53.552Z,2.05
2022-09-05T14:03:43.168Z,1.40
2022-09-05T14:06:45.959Z,1.70
2022-09-05T14:09:35.684Z,1.85
2022-09-05T14:12:13.417Z,1.50
2022-09-05T14:17:55.014Z,1.20
2022-09-05T14:20:44.386Z,1.23
2022-09-05T14:23:19.561Z,1.38
2022-09-05T14:25:52.747Z,1.33
2022-09-05T14:28:28.196Z,1.40
2022-09-05T14:35:23.467Z,1.40
2022-09-05T14:37:40.250Z,1.55
2022-09-05T14:37:44.560Z,1.00
2022-09-05T14:40:37.100Z,1.33
2022-09-05T14:43:38.588Z,1.20
2022-09-05T14:46:29.058Z,1.52
2022-09-05T14:49:14.252Z,1.45
2022-09-05T14:51:46.822Z,1.20
2022-09-05T15:02:39.267Z,1.17
2022-09-05T15:02:58.668Z,1.58
2022-09-05T15:03:05.128Z,1.10
2022-09-05T15:05:41.690Z,1.30
2022-09-05T15:08:33.233Z,0.93
2022-09-05T15:12:25.168Z,1.05
2022-09-05T15:13:57.348Z,1.13
2022-09-05T15:16:27.166Z,1.80
2022-09-05T15:18:56.322Z,1.10
2022-09-05T15:21:33.587Z,1.05
2022-09-05T15:24:14.280Z,1.08
2022-09-05T15:26:52.900Z,1.20
2022-09-05T15:29:24.540Z,1.08
2022-09-05T15:32:09.584Z,0.90
2022-09-05T15:34:39.554Z,1.45
2022-09-05T15:37:24.276Z,1.20
2022-09-05T15:40:02.345Z,1.00
2022-09-05T15:42:33.327Z,0.80
2022-09-05T15:45:10.077Z,1.00
2022-09-05T15:47:47.466Z,1.20
2022-09-05T15:50:22.036Z,0.90
2022-09-05T15:52:55.731Z,0.98
2022-09-05T15:55:26.084Z,0.88
2022-09-05T15:57:56.532Z,1.33
2022-09-05T16:00:42.216Z,1.10
2022-09-05T16:04:01.209Z,0.95
2022-09-05T16:10:42.752Z,0.77
2022-09-05T16:10:59.108Z,0.93
2022-09-05T16:14:58.068Z,0.70
2022-09-05T16:23:11.974Z,1.02
2022-09-05T16:23:18.147Z,1.15
2022-09-05T16:23:48.809Z,1.02
2022-09-05T16:26:25.684Z,1.20
2022-09-05T16:28:59.230Z,0.70
2022-09-05T16:31:38.920Z,0.80
2022-09-05T16:34:15.246Z,0.82
2022-09-05T16:37:08.167Z,1.35
2022-09-05T16:39:41.092Z,1.17
2022-09-05T16:42:19.878Z,0.77
2022-09-05T16:44:56.345Z,0.90
2022-09-05T16:47:30.495Z,1.00
2022-09-05T16:50:16.698Z,1.20
2022-09-05T16:53:28.248Z,0.98
2022-09-05T16:56:02.321Z,1.02
2022-09-05T16:58:34.261Z,0.80
2022-09-05T17:01:18.916Z,0.80
2022-09-05T17:03:56.623Z,1.10
2022-09-05T17:06:37.040Z,1.10
2022-09-05T17:09:20.597Z,1.00
2022-09-05T17:12:01.427Z,0.95
2022-09-05T17:14:35.076Z,1.10
2022-09-05T17:17:19.652Z,1.00
2022-09-05T17:20:07.545Z,1.10
2022-09-05T17:25:11.056Z,1.80
2022-09-05T17:29:31.430Z,0.80
2022-09-05T17:29:49.901Z,0.80
2022-09-05T17:31:53.518Z,1.20
2022-09-05T17:34:48.289Z,0.90
2022-09-05T17:38:12.136Z,0.88
2022-09-05T17:41:01.322Z,0.88
2022-09-05T17:43:33.028Z,0.88
2022-09-05T17:46:19.100Z,0.90
2022-09-05T17:49:18.239Z,0.90
2022-09-05T17:52:20.257Z,0.73
2022-09-05T17:54:52.190Z,0.80
2022-09-05T17:57:41.202Z,1.10
2022-09-05T18:00:49.338Z,0.80
2022-09-05T18:04:16.833Z,0.80
2022-09-05T18:07:00.580Z,0.90
2022-09-05T18:10:12.720Z,1.00
2022-09-05T18:13:12.452Z,0.80
2022-09-05T18:16:11.795Z,0.88
2022-09-05T18:19:27.731Z,0.80
2022-09-05T18:21:50.698Z,0.80
2022-09-05T18:24:33.687Z,0.70
2022-09-05T18:27:36.547Z,0.77
2022-09-05T18:30:09.367Z,1.08
2022-09-05T18:32:45.564Z,1.08
2022-09-05T18:35:37.332Z,0.70
2022-09-05T18:38:17.967Z,0.70
2022-09-05T18:41:01.197Z,0.70
2022-09-05T18:43:38.980Z,1.08
2022-09-05T18:46:18.043Z,2.65
2022-09-05T18:49:37.100Z,0.90
2022-09-05T18:51:50.289Z,0.77
2022-09-05T18:54:21.145Z,0.60
2022-09-05T18:57:26.359Z,1.00
2022-09-05T18:59:51.535Z,0.73
2022-09-05T19:02:49.937Z,0.55
2022-09-05T19:05:18.577Z,0.88
2022-09-05T19:07:59.668Z,0.60
2022-09-05T19:10:34.917Z,0.55
2022-09-05T19:13:13.075Z,0.80
2022-09-05T19:15:48.536Z,0.68
2022-09-05T19:18:25.823Z,0.73
2022-09-05T19:21:12.238Z,0.80
2022-09-05T19:23:44.219Z,1.42
2022-09-05T19:26:13.022Z,2.55
2022-09-05T19:36:57.701Z,0.68
2022-09-05T19:36:59.988Z,0.93
2022-09-05T19:37:04.108Z,0.60
2022-09-05T19:37:28.993Z,0.82
2022-09-05T19:42:20.017Z,1.05
2022-09-05T19:47:36.585Z,0.80
2022-09-05T19:47:40.427Z,1.60
2022-09-05T19:48:35.180Z,0.60
2022-09-05T19:51:16.568Z,1.05
2022-09-05T19:53:53.828Z,0.70
2022-09-05T19:56:34.233Z,0.77
2022-09-05T19:59:02.145Z,0.65
2022-09-05T20:01:31.753Z,0.60
2022-09-05T20:04:00.246Z,1.77
2022-09-05T20:06:31.298Z,0.90
2022-09-05T20:09:16.096Z,0.70
2022-09-05T20:11:49.451Z,0.88
2022-09-05T20:14:20.975Z,0.90
2022-09-05T20:16:50.334Z,1.08
2022-09-05T20:19:31.646Z,0.88
2022-09-05T20:22:10.130Z,0.98
2022-09-05T20:24:53.574Z,1.02
2022-09-05T20:27:27.215Z,0.77
2022-09-05T20:29:58.166Z,0.70
2022-09-05T20:32:40.195Z,0.90
2022-09-05T20:41:06.914Z,0.88
2022-09-05T20:43:10.064Z,0.95
2022-09-05T20:43:22.840Z,1.00
2022-09-05T20:43:52.807Z,0.60
2022-09-05T20:54:09.466Z,0.80
2022-09-05T20:54:17.840Z,1.00
2022-09-05T20:54:18.399Z,0.82
2022-09-05T20:55:40.295Z,0.60
2022-09-05T20:58:15.051Z,1.05
2022-09-05T21:01:24.339Z,0.80
2022-09-05T21:03:37.776Z,0.63
2022-09-05T21:06:19.986Z,0.90
2022-09-05T21:08:47.976Z,0.70
2022-09-05T21:11:17.511Z,0.80
2022-09-05T21:13:52.287Z,0.63
2022-09-05T21:16:23.222Z,0.70
2022-09-05T21:18:52.289Z,1.00
2022-09-05T21:21:29.441Z,0.77
2022-09-05T21:24:15.890Z,0.60
2022-09-05T21:26:50.748Z,0.80
2022-09-05T21:29:27.419Z,0.90
2022-09-05T21:32:04.046Z,0.80
2022-09-05T21:34:45.029Z,0.60
2022-09-05T21:37:14.975Z,0.70
2022-09-05T21:40:00.018Z,0.52
2022-09-05T21:44:07.377Z,0.70
2022-09-05T21:47:47.848Z,1.08
2022-09-05T21:48:08.897Z,0.75
2022-09-05T21:50:40.782Z,0.80
2022-09-05T21:58:00.791Z,0.70
2022-09-05T21:59:24.478Z,0.60
2022-09-05T21:59:24.588Z,0.70
2022-09-05T22:01:52.667Z,0.65
2022-09-05T22:04:22.400Z,0.90
2022-09-05T22:06:53.107Z,0.70
2022-09-05T22:09:22.814Z,1.17
2022-09-05T22:11:51.302Z,0.73
2022-09-05T22:14:22.163Z,0.80
2022-09-05T22:16:51.610Z,1.00
2022-09-05T22:19:26.221Z,0.77
2022-09-05T22:22:15.521Z,0.70
2022-09-05T22:24:46.978Z,0.77
2022-09-05T22:27:14.919Z,0.60
2022-09-05T22:29:47.403Z,0.90
2022-09-05T22:32:30.957Z,0.70
2022-09-05T22:35:27.231Z,0.82
2022-09-05T22:37:55.293Z,0.90
2022-09-05T22:40:28.879Z,0.80
2022-09-05T22:42:57.646Z,2.05
2022-09-05T22:45:27.693Z,0.80
2022-09-05T22:47:55.624Z,1.00
2022-09-05T22:50:24.076Z,0.90
2022-09-05T22:52:52.468Z,1.00
2022-09-05T22:55:20.439Z,0.80
2022-09-05T22:57:48.399Z,0.80
2022-09-05T23:00:16.515Z,0.77
2022-09-05T23:02:50.203Z,0.70
2022-09-05T23:05:20.289Z,0.93
2022-09-05T23:07:48.163Z,0.80
2022-09-05T23:10:16.256Z,1.25
2022-09-05T23:12:44.204Z,0.90
2022-09-05T23:15:12.377Z,1.02
2022-09-05T23:17:40.306Z,1.75
2022-09-05T23:20:10.862Z,0.75
2022-09-05T23:22:39.071Z,0.90
2022-09-05T23:25:07.724Z,1.65
2022-09-05T23:27:36.675Z,0.90
2022-09-05T23:30:06.607Z,1.00
2022-09-05T23:32:34.834Z,0.95
2022-09-05T23:35:02.931Z,0.90
2022-09-05T23:37:32.233Z,0.90
2022-09-05T23:40:00.312Z,1.00
2022-09-05T23:42:28.525Z,1.13
2022-09-05T23:44:56.429Z,0.90
2022-09-05T23:47:24.389Z,1.02
2022-09-05T23:49:52.235Z,0.90
2022-09-05T23:52:20.162Z,1.00
2022-09-05T23:54:49.409Z,1.58
2022-09-05T23:57:22.114Z,0.80
2022-09-05T23:59:52.391Z,0.90
